sensor_id;sensor_type;location;lat;lon;timestamp;pressure;altitude;pressure_sealevel;temperature;humidity
68891;BME280;55932;48.702;8.884;2023-02-18T00:00:19;97070;;;11;67
68891;BME280;55932;48.702;8.884;2023-02-18T00:02:49;97070;;;11;67
68891;BME280;55932;48.702;8.884;2023-02-18T00:05:20;97070;;;10.9;67
68891;BME280;55932;48.702;8.884;2023-02-18T00:07:51;97060;;;10.9;67
68891;BME280;55932;48.702;8.884;2023-02-18T00:10:34;97060;;;10.9;67
68891;BME280;55932;48.702;8.884;2023-02-18T00:13:08;97060;;;10.9;67
68891;BME280;55932;48.702;8.884;2023-02-18T00:20:25;97050;;;10.9;67
68891;BME280;55932;48.702;8.884;2023-02-18T00:25:32;97060;;;10.9;67
68891;BME280;55932;48.702;8.884;2023-02-18T00:28:03;97060;;;10.9;67
68891;BME280;55932;48.702;8.884;2023-02-18T00:33:06;97060;;;10.9;67
68891;BME280;55932;48.702;8.884;2023-02-18T00:35:36;97070;;;10.9;67
68891;BME280;55932;48.702;8.884;2023-02-18T00:38:14;97070;;;10.9;67
68891;BME280;55932;48.702;8.884;2023-02-18T00:40:39;97070;;;11;67
68891;BME280;55932;48.702;8.884;2023-02-18T00:43:15;97060;;;10.9;67
68891;BME280;55932;48.702;8.884;2023-02-18T00:45:45;97050;;;11;67
68891;BME280;55932;48.702;8.884;2023-02-18T00:48:09;97060;;;11;67
68891;BME280;55932;48.702;8.884;2023-02-18T00:50:40;97050;;;11;67
68891;BME280;55932;48.702;8.884;2023-02-18T00:53:11;97050;;;11;67
68891;BME280;55932;48.702;8.884;2023-02-18T00:55:42;97050;;;10.9;67
68891;BME280;55932;48.702;8.884;2023-02-18T01:00:37;97040;;;10.9;67
68891;BME280;55932;48.702;8.884;2023-02-18T01:03:07;97040;;;10.9;67
68891;BME280;55932;48.702;8.884;2023-02-18T01:08:09;97050;;;10.9;67
68891;BME280;55932;48.702;8.884;2023-02-18T01:10:40;97040;;;10.9;67
68891;BME280;55932;48.702;8.884;2023-02-18T01:13:11;97040;;;10.9;67
68891;BME280;55932;48.702;8.884;2023-02-18T01:15:48;97040;;;10.9;67
68891;BME280;55932;48.702;8.884;2023-02-18T01:18:19;97040;;;10.9;67
68891;BME280;55932;48.702;8.884;2023-02-18T01:23:14;97030;;;10.9;67
68891;BME280;55932;48.702;8.884;2023-02-18T01:30:46;97020;;;10.9;67
68891;BME280;55932;48.702;8.884;2023-02-18T01:33:17;97020;;;10.9;67
68891;BME280;55932;48.702;8.884;2023-02-18T01:35:47;97020;;;10.9;67
68891;BME280;55932;48.702;8.884;2023-02-18T01:38:18;97020;;;10.9;67
68891;BME280;55932;48.702;8.884;2023-02-18T01:40:56;97020;;;10.9;67
68891;BME280;55932;48.702;8.884;2023-02-18T01:43:27;97020;;;10.9;67
68891;BME280;55932;48.702;8.884;2023-02-18T01:48:23;97010;;;10.9;67
68891;BME280;55932;48.702;8.884;2023-02-18T01:50:53;97020;;;10.9;67
68891;BME280;55932;48.702;8.884;2023-02-18T01:53:25;97010;;;10.9;67
68891;BME280;55932;48.702;8.884;2023-02-18T02:00:56;97010;;;10.7;67.5
68891;BME280;55932;48.702;8.884;2023-02-18T02:03:26;97000;;;10.6;67.5
68891;BME280;55932;48.702;8.884;2023-02-18T02:06:08;97000;;;10.4;67.5
68891;BME280;55932;48.702;8.884;2023-02-18T02:08:35;97000;;;10.3;68
68891;BME280;55932;48.702;8.884;2023-02-18T02:11:08;96990;;;10.3;68
68891;BME280;55932;48.702;8.884;2023-02-18T02:13:50;96990;;;10.3;68
68891;BME280;55932;48.702;8.884;2023-02-18T02:18:38;96990;;;10.2;68
68891;BME280;55932;48.702;8.884;2023-02-18T02:21:07;96980;;;10.2;68
68891;BME280;55932;48.702;8.884;2023-02-18T02:28:55;97000;;;9.7;68
68891;BME280;55932;48.702;8.884;2023-02-18T02:31:13;97010;;;9.8;68
68891;BME280;55932;48.702;8.884;2023-02-18T02:36:22;96990;;;9.9;68
68891;BME280;55932;48.702;8.884;2023-02-18T02:38:53;96980;;;9.9;68
68891;BME280;55932;48.702;8.884;2023-02-18T02:43:50;96980;;;10.1;67.5
68891;BME280;55932;48.702;8.884;2023-02-18T02:46:25;96980;;;10.2;67.5
68891;BME280;55932;48.702;8.884;2023-02-18T02:53:54;96970;;;10.3;67.5
68891;BME280;55932;48.702;8.884;2023-02-18T02:56:24;96970;;;10.3;67.5
68891;BME280;55932;48.702;8.884;2023-02-18T03:01:22;96970;;;10.5;67.5
68891;BME280;55932;48.702;8.884;2023-02-18T03:04:56;96970;;;10.6;67
68891;BME280;55932;48.702;8.884;2023-02-18T03:06:26;96970;;;10.6;67
68891;BME280;55932;48.702;8.884;2023-02-18T03:14:13;96970;;;10.6;67.5
68891;BME280;55932;48.702;8.884;2023-02-18T03:16:33;96970;;;10.6;67
68891;BME280;55932;48.702;8.884;2023-02-18T03:19:07;96950;;;10.7;67
68891;BME280;55932;48.702;8.884;2023-02-18T03:23:54;96960;;;10.4;67.5
68891;BME280;55932;48.702;8.884;2023-02-18T03:26:23;96950;;;10.1;68
68891;BME280;55932;48.702;8.884;2023-02-18T03:28:54;96950;;;9.8;68
68891;BME280;55932;48.702;8.884;2023-02-18T03:38:55;96940;;;9.2;68.5
68891;BME280;55932;48.702;8.884;2023-02-18T03:41:21;96930;;;9.3;68.5
68891;BME280;55932;48.702;8.884;2023-02-18T03:43:57;96920;;;9.4;68.5
68891;BME280;55932;48.702;8.884;2023-02-18T03:46:23;96930;;;9.3;68.5
68891;BME280;55932;48.702;8.884;2023-02-18T03:51:30;96930;;;9.2;68.5
68891;BME280;55932;48.702;8.884;2023-02-18T03:54:02;96930;;;9;68.5
68891;BME280;55932;48.702;8.884;2023-02-18T03:56:33;96930;;;9;68.5
68891;BME280;55932;48.702;8.884;2023-02-18T03:59:03;96930;;;9.1;68.5
68891;BME280;55932;48.702;8.884;2023-02-18T04:01:34;96940;;;9.1;68.5
68891;BME280;55932;48.702;8.884;2023-02-18T04:04:11;96940;;;9.2;68.5
68891;BME280;55932;48.702;8.884;2023-02-18T04:06:42;96940;;;9.3;68.5
68891;BME280;55932;48.702;8.884;2023-02-18T04:11:38;96930;;;9.3;68
68891;BME280;55932;48.702;8.884;2023-02-18T04:16:46;96930;;;8.9;68.5
68891;BME280;55932;48.702;8.884;2023-02-18T04:19:16;96920;;;8.8;68.5
68891;BME280;55932;48.702;8.884;2023-02-18T04:21:46;96920;;;8.8;68.5
68891;BME280;55932;48.702;8.884;2023-02-18T04:26:41;96930;;;8.7;69
68891;BME280;55932;48.702;8.884;2023-02-18T04:29:11;96930;;;8.7;69
68891;BME280;55932;48.702;8.884;2023-02-18T04:31:43;96920;;;8.8;68.5
68891;BME280;55932;48.702;8.884;2023-02-18T04:34:20;96920;;;8.8;68.5
68891;BME280;55932;48.702;8.884;2023-02-18T04:42:05;96920;;;9;68.5
68891;BME280;55932;48.702;8.884;2023-02-18T04:44:22;96910;;;9.1;68.5
68891;BME280;55932;48.702;8.884;2023-02-18T04:49:17;96930;;;9.3;68
68891;BME280;55932;48.702;8.884;2023-02-18T04:51:47;96930;;;9.3;68
68891;BME280;55932;48.702;8.884;2023-02-18T04:54:18;96920;;;9.2;68
68891;BME280;55932;48.702;8.884;2023-02-18T05:01:44;96910;;;9.3;68
68891;BME280;55932;48.702;8.884;2023-02-18T05:04:15;96900;;;9.5;68
68891;BME280;55932;48.702;8.884;2023-02-18T05:06:46;96900;;;9.7;67.5
68891;BME280;55932;48.702;8.884;2023-02-18T05:09:16;96900;;;9.8;67.5
68891;BME280;55932;48.702;8.884;2023-02-18T05:11:47;96910;;;9.9;67.5
68891;BME280;55932;48.702;8.884;2023-02-18T05:14:18;96910;;;10.1;67.5
68891;BME280;55932;48.702;8.884;2023-02-18T05:16:49;96920;;;10.1;67.5
68891;BME280;55932;48.702;8.884;2023-02-18T05:19:20;96920;;;10.2;67.5
68891;BME280;55932;48.702;8.884;2023-02-18T05:21:50;96910;;;10.2;67.5
68891;BME280;55932;48.702;8.884;2023-02-18T05:24:21;96900;;;10.1;67.5
68891;BME280;55932;48.702;8.884;2023-02-18T05:34:29;96910;;;10.2;67.5
68891;BME280;55932;48.702;8.884;2023-02-18T05:37:00;96910;;;10.1;67.5
68891;BME280;55932;48.702;8.884;2023-02-18T05:39:32;96910;;;10;67.5
68891;BME280;55932;48.702;8.884;2023-02-18T05:41:56;96910;;;9.9;67.5
68891;BME280;55932;48.702;8.884;2023-02-18T05:44:26;96900;;;9.8;68
68891;BME280;55932;48.702;8.884;2023-02-18T05:46:58;96900;;;9.7;68
68891;BME280;55932;48.702;8.884;2023-02-18T05:49:28;96900;;;9.7;68
68891;BME280;55932;48.702;8.884;2023-02-18T05:57:19;96900;;;9.7;68
68891;BME280;55932;48.702;8.884;2023-02-18T06:04:44;96910;;;9.5;68
68891;BME280;55932;48.702;8.884;2023-02-18T06:07:14;96910;;;9.5;68
68891;BME280;55932;48.702;8.884;2023-02-18T06:12:18;96900;;;9.8;67.5
68891;BME280;55932;48.702;8.884;2023-02-18T06:14:48;96900;;;9.9;67.5
68891;BME280;55932;48.702;8.884;2023-02-18T06:17:18;96890;;;10;67.5
68891;BME280;55932;48.702;8.884;2023-02-18T06:19:48;96880;;;10.1;67.5
68891;BME280;55932;48.702;8.884;2023-02-18T06:22:08;96880;;;10.1;67.5
68891;BME280;55932;48.702;8.884;2023-02-18T06:24:39;96870;;;10.2;67.5
68891;BME280;55932;48.702;8.884;2023-02-18T06:27:09;96880;;;10.3;67.5
68891;BME280;55932;48.702;8.884;2023-02-18T06:29:39;96880;;;10.3;67
68891;BME280;55932;48.702;8.884;2023-02-18T06:32:10;96880;;;10.3;67.5
68891;BME280;55932;48.702;8.884;2023-02-18T06:34:41;96880;;;10.2;67.5
68891;BME280;55932;48.702;8.884;2023-02-18T06:37:11;96880;;;10.3;67.5
68891;BME280;55932;48.702;8.884;2023-02-18T06:39:41;96890;;;10.4;67.5
68891;BME280;55932;48.702;8.884;2023-02-18T06:50:04;96890;;;10.7;67
68891;BME280;55932;48.702;8.884;2023-02-18T06:52:34;96900;;;10.7;67
68891;BME280;55932;48.702;8.884;2023-02-18T06:54:55;96900;;;10.7;67
68891;BME280;55932;48.702;8.884;2023-02-18T06:57:25;96900;;;10.8;67
68891;BME280;55932;48.702;8.884;2023-02-18T07:02:26;96900;;;10.9;67
68891;BME280;55932;48.702;8.884;2023-02-18T07:04:55;96900;;;10.9;67
68891;BME280;55932;48.702;8.884;2023-02-18T07:07:25;96900;;;10.9;67
68891;BME280;55932;48.702;8.884;2023-02-18T07:20:18;96900;;;11.2;67
68891;BME280;55932;48.702;8.884;2023-02-18T07:22:48;96890;;;11.2;67
68891;BME280;55932;48.702;8.884;2023-02-18T07:25:10;96890;;;11.3;67
68891;BME280;55932;48.702;8.884;2023-02-18T07:27:40;96880;;;11.3;67
68891;BME280;55932;48.702;8.884;2023-02-18T07:30:11;96880;;;11.3;67
68891;BME280;55932;48.702;8.884;2023-02-18T07:32:30;96880;;;11.4;67
68891;BME280;55932;48.702;8.884;2023-02-18T07:35:00;96880;;;11.4;67
68891;BME280;55932;48.702;8.884;2023-02-18T07:37:30;96890;;;11.5;67
68891;BME280;55932;48.702;8.884;2023-02-18T07:40:00;96880;;;11.5;66.5
68891;BME280;55932;48.702;8.884;2023-02-18T07:42:39;96880;;;11.6;67
68891;BME280;55932;48.702;8.884;2023-02-18T07:47:31;96880;;;11.6;66.5
68891;BME280;55932;48.702;8.884;2023-02-18T07:50:00;96880;;;11.6;66.5
68891;BME280;55932;48.702;8.884;2023-02-18T07:52:31;96880;;;11.6;67
68891;BME280;55932;48.702;8.884;2023-02-18T07:55:01;96880;;;11.6;67
68891;BME280;55932;48.702;8.884;2023-02-18T07:57:33;96880;;;11.6;67
68891;BME280;55932;48.702;8.884;2023-02-18T08:00:09;96870;;;11.6;67
68891;BME280;55932;48.702;8.884;2023-02-18T08:02:31;96870;;;11.7;66.5
68891;BME280;55932;48.702;8.884;2023-02-18T08:05:10;96870;;;11.7;66.5
68891;BME280;55932;48.702;8.884;2023-02-18T08:07:40;96880;;;11.8;66.5
68891;BME280;55932;48.702;8.884;2023-02-18T08:10:01;96880;;;11.7;66.5
68891;BME280;55932;48.702;8.884;2023-02-18T08:12:31;96880;;;11.7;67
68891;BME280;55932;48.702;8.884;2023-02-18T08:20:04;96870;;;11.7;67
68891;BME280;55932;48.702;8.884;2023-02-18T08:22:32;96870;;;11.7;67
68891;BME280;55932;48.702;8.884;2023-02-18T08:25:02;96870;;;11.8;67
68891;BME280;55932;48.702;8.884;2023-02-18T08:29:52;96870;;;11.9;66.5
68891;BME280;55932;48.702;8.884;2023-02-18T08:32:25;96870;;;11.9;66.5
68891;BME280;55932;48.702;8.884;2023-02-18T08:34:53;96860;;;12;66.5
68891;BME280;55932;48.702;8.884;2023-02-18T08:37:23;96870;;;12;66.5
68891;BME280;55932;48.702;8.884;2023-02-18T08:39:54;96860;;;12;66.5
68891;BME280;55932;48.702;8.884;2023-02-18T08:42:24;96860;;;12.1;66.5
68891;BME280;55932;48.702;8.884;2023-02-18T08:44:54;96860;;;12.1;66.5
68891;BME280;55932;48.702;8.884;2023-02-18T08:47:25;96860;;;12.2;66.5
68891;BME280;55932;48.702;8.884;2023-02-18T09:02:39;96840;;;12.2;66.5
68891;BME280;55932;48.702;8.884;2023-02-18T09:05:09;96830;;;12.2;66.5
68891;BME280;55932;48.702;8.884;2023-02-18T09:07:39;96830;;;12.1;66.5
68891;BME280;55932;48.702;8.884;2023-02-18T09:10:22;96830;;;12.2;66.5
68891;BME280;55932;48.702;8.884;2023-02-18T09:12:52;96830;;;12.3;66.5
68891;BME280;55932;48.702;8.884;2023-02-18T09:15:23;96830;;;12.3;66.5
68891;BME280;55932;48.702;8.884;2023-02-18T09:20:17;96810;;;12.7;66
68891;BME280;55932;48.702;8.884;2023-02-18T09:22:51;96810;;;12.7;66
68891;BME280;55932;48.702;8.884;2023-02-18T09:25:21;96810;;;12.9;66
68891;BME280;55932;48.702;8.884;2023-02-18T09:27:43;96800;;;13.3;66
68891;BME280;55932;48.702;8.884;2023-02-18T09:30:12;96790;;;13.3;66
68891;BME280;55932;48.702;8.884;2023-02-18T09:32:42;96800;;;13.2;66
68891;BME280;55932;48.702;8.884;2023-02-18T09:35:17;96790;;;13.3;66
68891;BME280;55932;48.702;8.884;2023-02-18T09:37:42;96790;;;13.4;66
68891;BME280;55932;48.702;8.884;2023-02-18T09:40:23;96790;;;13.3;66
68891;BME280;55932;48.702;8.884;2023-02-18T09:42:43;96790;;;13.5;66
68891;BME280;55932;48.702;8.884;2023-02-18T09:47:53;96780;;;13.5;66
68891;BME280;55932;48.702;8.884;2023-02-18T09:50:25;96780;;;13.8;66
68891;BME280;55932;48.702;8.884;2023-02-18T10:13:13;96810;;;14;65.5
68891;BME280;55932;48.702;8.884;2023-02-18T10:15:30;96800;;;13.9;66
68891;BME280;55932;48.702;8.884;2023-02-18T10:18:01;96800;;;13.7;66
68891;BME280;55932;48.702;8.884;2023-02-18T10:20:31;96790;;;13.5;66.5
68891;BME280;55932;48.702;8.884;2023-02-18T10:45:27;96820;;;14.4;66
68891;BME280;55932;48.702;8.884;2023-02-18T10:50:29;96820;;;14.4;66
68891;BME280;55932;48.702;8.884;2023-02-18T10:55:37;96800;;;14;66.5
68891;BME280;55932;48.702;8.884;2023-02-18T10:58:23;96810;;;13.7;66.5
68891;BME280;55932;48.702;8.884;2023-02-18T11:00:26;96810;;;13.6;66.5
68891;BME280;55932;48.702;8.884;2023-02-18T11:05:26;96800;;;14.7;66
68891;BME280;55932;48.702;8.884;2023-02-18T11:07:56;96790;;;15.1;65.5
68891;BME280;55932;48.702;8.884;2023-02-18T11:10:30;96780;;;15.2;65.5
68891;BME280;55932;48.702;8.884;2023-02-18T11:15:20;96780;;;14.6;66.5
68891;BME280;55932;48.702;8.884;2023-02-18T11:17:47;96770;;;14.3;66.5
68891;BME280;55932;48.702;8.884;2023-02-18T11:22:48;96780;;;13.9;67
68891;BME280;55932;48.702;8.884;2023-02-18T11:25:20;96770;;;13.8;67
68891;BME280;55932;48.702;8.884;2023-02-18T11:27:50;96760;;;14.1;67
68891;BME280;55932;48.702;8.884;2023-02-18T11:30:32;96770;;;14.2;66.5
68891;BME280;55932;48.702;8.884;2023-02-18T11:33:05;96760;;;14.2;66.5
68891;BME280;55932;48.702;8.884;2023-02-18T11:35:31;96750;;;14.9;66.5
68891;BME280;55932;48.702;8.884;2023-02-18T11:37:50;96750;;;16.2;67
68891;BME280;55932;48.702;8.884;2023-02-18T11:40:22;96730;;;16.5;66.5
68891;BME280;55932;48.702;8.884;2023-02-18T11:48:00;96730;;;16.8;66
68891;BME280;55932;48.702;8.884;2023-02-18T11:50:24;96730;;;16;66
68891;BME280;55932;48.702;8.884;2023-02-18T11:52:54;96740;;;15.8;67
68891;BME280;55932;48.702;8.884;2023-02-18T11:57:55;96720;;;17.3;66
68891;BME280;55932;48.702;8.884;2023-02-18T12:00:35;96720;;;18.5;65.5
68891;BME280;55932;48.702;8.884;2023-02-18T12:05:48;96720;;;17.8;64.5
68891;BME280;55932;48.702;8.884;2023-02-18T12:10:50;96730;;;16.9;66
68891;BME280;55932;48.702;8.884;2023-02-18T12:13:24;96740;;;16.7;66
68891;BME280;55932;48.702;8.884;2023-02-18T12:15:58;96750;;;16;66.5
68891;BME280;55932;48.702;8.884;2023-02-18T12:18:32;96730;;;15.2;67
68891;BME280;55932;48.702;8.884;2023-02-18T12:21:02;96740;;;14.9;67.5
68891;BME280;55932;48.702;8.884;2023-02-18T12:23:35;96740;;;15;67
68891;BME280;55932;48.702;8.884;2023-02-18T12:28:30;96740;;;14.6;67.5
68891;BME280;55932;48.702;8.884;2023-02-18T12:30:51;96720;;;14.8;67
68891;BME280;55932;48.702;8.884;2023-02-18T12:33:18;96730;;;15.1;66.5
68891;BME280;55932;48.702;8.884;2023-02-18T12:40:41;96710;;;15;66.5
68891;BME280;55932;48.702;8.884;2023-02-18T12:43:07;96710;;;15;66.5
68891;BME280;55932;48.702;8.884;2023-02-18T12:58:12;96720;;;15.1;66.5
68891;BME280;55932;48.702;8.884;2023-02-18T13:00:39;96700;;;15.3;66.5
68891;BME280;55932;48.702;8.884;2023-02-18T13:06:21;96720;;;15.8;66
68891;BME280;55932;48.702;8.884;2023-02-18T13:08:34;96700;;;15.5;66
68891;BME280;55932;48.702;8.884;2023-02-18T13:11:13;96710;;;15.3;66
68891;BME280;55932;48.702;8.884;2023-02-18T13:18:22;96690;;;14.9;66.5
68891;BME280;55932;48.702;8.884;2023-02-18T13:20:52;96690;;;15;66
68891;BME280;55932;48.702;8.884;2023-02-18T13:23:21;96720;;;14.9;66
68891;BME280;55932;48.702;8.884;2023-02-18T13:25:39;96700;;;14.8;66.5
68891;BME280;55932;48.702;8.884;2023-02-18T13:28:37;96700;;;14.9;66
68891;BME280;55932;48.702;8.884;2023-02-18T13:31:14;96700;;;15.2;66.5
68891;BME280;55932;48.702;8.884;2023-02-18T13:33:38;96700;;;15.1;66
68891;BME280;55932;48.702;8.884;2023-02-18T13:39:36;96690;;;14.5;66.5
68891;BME280;55932;48.702;8.884;2023-02-18T13:40:54;96690;;;14.2;67
68891;BME280;55932;48.702;8.884;2023-02-18T13:43:29;96700;;;14.1;66.5
68891;BME280;55932;48.702;8.884;2023-02-18T13:48:21;96690;;;14.1;67
68891;BME280;55932;48.702;8.884;2023-02-18T13:50:43;96680;;;13.9;67
68891;BME280;55932;48.702;8.884;2023-02-18T14:03:28;96680;;;13.8;67.5
68891;BME280;55932;48.702;8.884;2023-02-18T14:13:23;96660;;;13.8;67
68891;BME280;55932;48.702;8.884;2023-02-18T14:15:53;96660;;;13.6;67.5
